Weather at Minneapolis–Saint Paul International Airport / Wold–Chamberlain Field

Public forecast

Using degrees Fahrenheit for public forecast. Weather courtesy of forecast.io.

Current aviation weather report (METAR) for Minneapolis–Saint Paul International Airport / Wold–Chamberlain Field

Retrieved 2022/05/23 08:53 UTC (18 minutes ago):

KMSP 230853Z 00000KT 10SM BKN085 07/01 A3038 RMK AO2 SLP290 T00670011 51002

Aviation forecast (TAF) for Minneapolis–Saint Paul International Airport / Wold–Chamberlain Field

Retrieved 2022/05/23 06:22 UTC (3 hours ago):

TAF KMSP 230520Z 2306/2412 VRB03KT P6SM FEW080 FM231600 14007KT P6SM SCT080 BKN150